Pagina principală
METAR-TAF:

METAR-TAF

Aeroporturi :

Aeroportul Internațional „George Enescu” Bacău

Bacău, România

Latitudine: 46-35N, longitudine: 026-58E, elevație: 184 m

Observații meteo curente

Raportul a fost făcut în urmă cu 22 de minute, la 17:30 UTC
Vânt 4 kt de la Nord/Nord-vest
Temperatură 10°C
Umiditate 66%
Presiune 1010 hPa
Vizibilitate de 10 km sau mai mult
nu există nori sub 1.500 m și nici cumulonimbus

METAR: LRBC 201730Z 33004KT CAVOK 10/04 Q1010

Ora: 20:52 (17:52 UTC)

Prognoză

Raportul a fost făcut în urmă cu 52 de minute, la 17:00 UTC
Prognoză valabilă de la 20 ora 18 UTC la 21 ora 03 UTC
Vânt 4 kt din direcții variabile
Vizibilitate de 10 km sau mai mult
Nori împrăștiați la o înălțime de 4000 picior
Devenind
de la 20 ora 18 UTC la 20 ora 20 UTC
Vânt 10 kt de la Nord

TAF: LRBC 201700Z 2018/2103 VRB04KT 9999 SCT040 BECMG 2018/2020 35010KT

Observații și prognoze meteo pentru peste 4.000 de aeroporturi (rapoarte METAR și TAF).

Stațiile disponibile sunt reprezentate pe hartă prin puncte galbene și roșii.

Țineți indicatorul mouse-ului pe punctul dorit pentru a vedea denumirea stației.

Apoi, faceți clic pentru a vedea observațiile și prognozele meteorologice.

Pentru a schimba harta: Pentru mărire, faceți clic pe butoanele verzi cu cruce neagră; pentru micșorare, pe butonul verde cu o liniuță; pentru hărți învecinate, pe săgețile verzi.


METAR-TAF: